sensor_id;sensor_type;location;lat;lon;timestamp;P1;durP1;ratioP1;P2;durP2;ratioP2
22881;SDS011;11608;50.894;5.296;2023-05-10T00:00:01;37.97;;;34.95;;
22881;SDS011;11608;50.894;5.296;2023-05-10T00:02:29;37.65;;;34.63;;
22881;SDS011;11608;50.894;5.296;2023-05-10T00:04:55;39.13;;;36.03;;
22881;SDS011;11608;50.894;5.296;2023-05-10T00:07:21;37.25;;;34.28;;
22881;SDS011;11608;50.894;5.296;2023-05-10T00:09:47;38.85;;;35.35;;
22881;SDS011;11608;50.894;5.296;2023-05-10T00:12:13;37.70;;;34.58;;
22881;SDS011;11608;50.894;5.296;2023-05-10T00:14:39;36.67;;;33.70;;
22881;SDS011;11608;50.894;5.296;2023-05-10T00:17:05;38.42;;;35.42;;
22881;SDS011;11608;50.894;5.296;2023-05-10T00:19:32;37.72;;;34.83;;
22881;SDS011;11608;50.894;5.296;2023-05-10T00:21:58;38.38;;;35.38;;
22881;SDS011;11608;50.894;5.296;2023-05-10T00:24:24;37.05;;;34.05;;
22881;SDS011;11608;50.894;5.296;2023-05-10T00:26:50;36.65;;;33.70;;
22881;SDS011;11608;50.894;5.296;2023-05-10T00:29:16;36.95;;;33.88;;
22881;SDS011;11608;50.894;5.296;2023-05-10T00:31:44;36.10;;;33.25;;
22881;SDS011;11608;50.894;5.296;2023-05-10T00:34:12;36.15;;;33.05;;
22881;SDS011;11608;50.894;5.296;2023-05-10T00:36:38;36.15;;;33.17;;
22881;SDS011;11608;50.894;5.296;2023-05-10T00:39:05;36.92;;;34.00;;
22881;SDS011;11608;50.894;5.296;2023-05-10T00:41:31;37.80;;;34.70;;
22881;SDS011;11608;50.894;5.296;2023-05-10T00:43:58;36.72;;;33.63;;
22881;SDS011;11608;50.894;5.296;2023-05-10T00:46:24;35.47;;;32.67;;
22881;SDS011;11608;50.894;5.296;2023-05-10T00:48:50;37.38;;;34.10;;
22881;SDS011;11608;50.894;5.296;2023-05-10T00:51:16;36.30;;;33.10;;
22881;SDS011;11608;50.894;5.296;2023-05-10T00:53:45;36.25;;;33.17;;
22881;SDS011;11608;50.894;5.296;2023-05-10T00:56:12;36.33;;;33.35;;
22881;SDS011;11608;50.894;5.296;2023-05-10T00:58:39;36.17;;;33.25;;
22881;SDS011;11608;50.894;5.296;2023-05-10T01:01:05;36.00;;;33.00;;
22881;SDS011;11608;50.894;5.296;2023-05-10T01:03:32;35.00;;;32.20;;
22881;SDS011;11608;50.894;5.296;2023-05-10T01:05:58;35.75;;;32.92;;
22881;SDS011;11608;50.894;5.296;2023-05-10T01:08:24;36.30;;;33.60;;
22881;SDS011;11608;50.894;5.296;2023-05-10T01:10:51;36.17;;;33.17;;
22881;SDS011;11608;50.894;5.296;2023-05-10T01:13:52;36.90;;;33.90;;
22881;SDS011;11608;50.894;5.296;2023-05-10T01:16:10;38.67;;;35.20;;
22881;SDS011;11608;50.894;5.296;2023-05-10T01:18:38;38.15;;;34.95;;
22881;SDS011;11608;50.894;5.296;2023-05-10T01:23:35;41.05;;;37.28;;
22881;SDS011;11608;50.894;5.296;2023-05-10T01:34:17;38.17;;;34.88;;
22881;SDS011;11608;50.894;5.296;2023-05-10T01:41:40;39.45;;;35.90;;
22881;SDS011;11608;50.894;5.296;2023-05-10T01:46:41;41.08;;;37.25;;
22881;SDS011;11608;50.894;5.296;2023-05-10T01:49:09;40.65;;;36.75;;
22881;SDS011;11608;50.894;5.296;2023-05-10T01:51:36;40.15;;;36.67;;
22881;SDS011;11608;50.894;5.296;2023-05-10T01:54:04;39.70;;;36.20;;
22881;SDS011;11608;50.894;5.296;2023-05-10T01:56:32;40.10;;;36.42;;
22881;SDS011;11608;50.894;5.296;2023-05-10T01:58:58;40.40;;;36.70;;
22881;SDS011;11608;50.894;5.296;2023-05-10T02:01:26;38.97;;;35.30;;
22881;SDS011;11608;50.894;5.296;2023-05-10T02:03:53;38.80;;;34.83;;
22881;SDS011;11608;50.894;5.296;2023-05-10T02:06:20;38.60;;;34.92;;
22881;SDS011;11608;50.894;5.296;2023-05-10T02:08:47;37.90;;;34.38;;
22881;SDS011;11608;50.894;5.296;2023-05-10T02:11:15;37.83;;;34.22;;
22881;SDS011;11608;50.894;5.296;2023-05-10T02:13:43;37.90;;;34.42;;
22881;SDS011;11608;50.894;5.296;2023-05-10T02:16:12;38.70;;;35.05;;
22881;SDS011;11608;50.894;5.296;2023-05-10T02:18:38;39.50;;;35.40;;
22881;SDS011;11608;50.894;5.296;2023-05-10T02:21:05;40.83;;;36.72;;
22881;SDS011;11608;50.894;5.296;2023-05-10T02:23:31;37.25;;;33.83;;
22881;SDS011;11608;50.894;5.296;2023-05-10T02:25:58;38.90;;;35.10;;
22881;SDS011;11608;50.894;5.296;2023-05-10T02:28:26;37.85;;;34.47;;
22881;SDS011;11608;50.894;5.296;2023-05-10T02:30:54;37.08;;;33.80;;
22881;SDS011;11608;50.894;5.296;2023-05-10T02:33:21;40.58;;;35.25;;
22881;SDS011;11608;50.894;5.296;2023-05-10T02:35:47;39.35;;;35.63;;
22881;SDS011;11608;50.894;5.296;2023-05-10T02:38:14;38.78;;;35.42;;
22881;SDS011;11608;50.894;5.296;2023-05-10T02:40:41;38.20;;;34.78;;
22881;SDS011;11608;50.894;5.296;2023-05-10T02:43:09;39.42;;;35.67;;
22881;SDS011;11608;50.894;5.296;2023-05-10T02:45:35;39.15;;;35.53;;
22881;SDS011;11608;50.894;5.296;2023-05-10T02:48:03;38.83;;;35.45;;
22881;SDS011;11608;50.894;5.296;2023-05-10T02:50:30;39.95;;;36.13;;
22881;SDS011;11608;50.894;5.296;2023-05-10T02:53:01;40.03;;;36.42;;
22881;SDS011;11608;50.894;5.296;2023-05-10T02:55:32;39.80;;;36.00;;
22881;SDS011;11608;50.894;5.296;2023-05-10T02:57:59;40.30;;;36.33;;
22881;SDS011;11608;50.894;5.296;2023-05-10T03:00:26;40.88;;;37.30;;
22881;SDS011;11608;50.894;5.296;2023-05-10T03:02:52;39.50;;;35.53;;
22881;SDS011;11608;50.894;5.296;2023-05-10T03:05:21;40.72;;;36.38;;
22881;SDS011;11608;50.894;5.296;2023-05-10T03:07:47;40.90;;;36.72;;
22881;SDS011;11608;50.894;5.296;2023-05-10T03:10:13;41.13;;;37.15;;
22881;SDS011;11608;50.894;5.296;2023-05-10T03:15:36;42.28;;;38.40;;
22881;SDS011;11608;50.894;5.296;2023-05-10T03:18:07;41.33;;;37.53;;
22881;SDS011;11608;50.894;5.296;2023-05-10T03:20:35;41.50;;;37.47;;
22881;SDS011;11608;50.894;5.296;2023-05-10T03:23:20;40.42;;;36.63;;
22881;SDS011;11608;50.894;5.296;2023-05-10T03:25:48;41.40;;;37.42;;
22881;SDS011;11608;50.894;5.296;2023-05-10T03:28:15;41.88;;;37.75;;
22881;SDS011;11608;50.894;5.296;2023-05-10T03:30:42;40.03;;;36.08;;
22881;SDS011;11608;50.894;5.296;2023-05-10T03:33:09;40.78;;;36.83;;
22881;SDS011;11608;50.894;5.296;2023-05-10T03:35:35;41.45;;;37.47;;
22881;SDS011;11608;50.894;5.296;2023-05-10T03:38:02;40.72;;;36.67;;
22881;SDS011;11608;50.894;5.296;2023-05-10T03:40:28;42.95;;;38.92;;
22881;SDS011;11608;50.894;5.296;2023-05-10T03:42:56;40.15;;;36.33;;
22881;SDS011;11608;50.894;5.296;2023-05-10T03:45:22;41.35;;;37.33;;
22881;SDS011;11608;50.894;5.296;2023-05-10T03:47:48;40.88;;;36.67;;
22881;SDS011;11608;50.894;5.296;2023-05-10T03:50:14;42.67;;;38.42;;
22881;SDS011;11608;50.894;5.296;2023-05-10T03:52:40;42.75;;;38.75;;
22881;SDS011;11608;50.894;5.296;2023-05-10T03:55:06;43.38;;;39.00;;
22881;SDS011;11608;50.894;5.296;2023-05-10T03:57:33;38.72;;;35.05;;
22881;SDS011;11608;50.894;5.296;2023-05-10T03:59:59;39.10;;;35.50;;
22881;SDS011;11608;50.894;5.296;2023-05-10T04:02:25;41.20;;;37.20;;
22881;SDS011;11608;50.894;5.296;2023-05-10T04:04:51;39.22;;;35.80;;
22881;SDS011;11608;50.894;5.296;2023-05-10T04:07:17;43.42;;;39.58;;
22881;SDS011;11608;50.894;5.296;2023-05-10T04:09:43;43.80;;;39.70;;
22881;SDS011;11608;50.894;5.296;2023-05-10T04:12:10;44.42;;;40.03;;
22881;SDS011;11608;50.894;5.296;2023-05-10T04:14:36;43.15;;;39.35;;
22881;SDS011;11608;50.894;5.296;2023-05-10T04:17:02;46.08;;;41.97;;
22881;SDS011;11608;50.894;5.296;2023-05-10T04:19:28;43.92;;;40.13;;
22881;SDS011;11608;50.894;5.296;2023-05-10T04:21:55;39.75;;;36.53;;
22881;SDS011;11608;50.894;5.296;2023-05-10T04:24:21;40.35;;;36.97;;
22881;SDS011;11608;50.894;5.296;2023-05-10T04:26:49;39.63;;;36.33;;
22881;SDS011;11608;50.894;5.296;2023-05-10T04:29:15;38.70;;;35.25;;
22881;SDS011;11608;50.894;5.296;2023-05-10T04:31:41;41.25;;;37.53;;
22881;SDS011;11608;50.894;5.296;2023-05-10T04:34:08;40.05;;;36.80;;
22881;SDS011;11608;50.894;5.296;2023-05-10T04:36:34;39.38;;;36.28;;
22881;SDS011;11608;50.894;5.296;2023-05-10T04:39:03;37.53;;;34.35;;
22881;SDS011;11608;50.894;5.296;2023-05-10T04:41:30;36.67;;;33.60;;
22881;SDS011;11608;50.894;5.296;2023-05-10T04:43:56;39.40;;;35.55;;
22881;SDS011;11608;50.894;5.296;2023-05-10T04:46:22;39.97;;;36.65;;
22881;SDS011;11608;50.894;5.296;2023-05-10T04:48:48;40.90;;;36.72;;
22881;SDS011;11608;50.894;5.296;2023-05-10T04:51:14;40.97;;;37.17;;
22881;SDS011;11608;50.894;5.296;2023-05-10T04:53:40;37.22;;;33.50;;
22881;SDS011;11608;50.894;5.296;2023-05-10T04:56:06;36.05;;;32.78;;
22881;SDS011;11608;50.894;5.296;2023-05-10T04:58:32;35.05;;;31.95;;
22881;SDS011;11608;50.894;5.296;2023-05-10T05:01:04;32.38;;;29.50;;
22881;SDS011;11608;50.894;5.296;2023-05-10T05:03:31;31.65;;;28.98;;
22881;SDS011;11608;50.894;5.296;2023-05-10T05:05:57;33.00;;;30.20;;
22881;SDS011;11608;50.894;5.296;2023-05-10T05:08:23;33.10;;;30.15;;
22881;SDS011;11608;50.894;5.296;2023-05-10T05:10:52;32.45;;;29.60;;
22881;SDS011;11608;50.894;5.296;2023-05-10T05:13:18;36.47;;;32.95;;
22881;SDS011;11608;50.894;5.296;2023-05-10T05:15:44;36.42;;;33.15;;
22881;SDS011;11608;50.894;5.296;2023-05-10T05:18:10;35.17;;;32.10;;
22881;SDS011;11608;50.894;5.296;2023-05-10T05:20:36;35.50;;;32.50;;
22881;SDS011;11608;50.894;5.296;2023-05-10T05:23:02;36.30;;;32.80;;
22881;SDS011;11608;50.894;5.296;2023-05-10T05:25:28;36.13;;;32.65;;
22881;SDS011;11608;50.894;5.296;2023-05-10T05:27:54;36.83;;;33.28;;
22881;SDS011;11608;50.894;5.296;2023-05-10T05:30:20;35.60;;;32.45;;
22881;SDS011;11608;50.894;5.296;2023-05-10T05:32:46;34.72;;;31.73;;
22881;SDS011;11608;50.894;5.296;2023-05-10T05:35:12;34.13;;;31.15;;
22881;SDS011;11608;50.894;5.296;2023-05-10T05:37:39;33.47;;;30.48;;
22881;SDS011;11608;50.894;5.296;2023-05-10T05:40:06;38.22;;;34.35;;
22881;SDS011;11608;50.894;5.296;2023-05-10T05:42:32;38.45;;;34.85;;
22881;SDS011;11608;50.894;5.296;2023-05-10T05:44:58;35.75;;;32.38;;
22881;SDS011;11608;50.894;5.296;2023-05-10T05:47:25;33.17;;;30.33;;
22881;SDS011;11608;50.894;5.296;2023-05-10T05:49:53;34.13;;;31.30;;
22881;SDS011;11608;50.894;5.296;2023-05-10T05:52:20;40.33;;;36.35;;
22881;SDS011;11608;50.894;5.296;2023-05-10T05:54:46;38.13;;;34.63;;
22881;SDS011;11608;50.894;5.296;2023-05-10T05:57:12;34.25;;;31.25;;
22881;SDS011;11608;50.894;5.296;2023-05-10T05:59:38;38.45;;;34.83;;
22881;SDS011;11608;50.894;5.296;2023-05-10T06:02:09;40.30;;;36.53;;
22881;SDS011;11608;50.894;5.296;2023-05-10T06:04:35;40.53;;;36.45;;
22881;SDS011;11608;50.894;5.296;2023-05-10T06:07:01;38.20;;;34.75;;
22881;SDS011;11608;50.894;5.296;2023-05-10T06:09:27;41.17;;;37.15;;
22881;SDS011;11608;50.894;5.296;2023-05-10T06:11:53;43.33;;;39.05;;
22881;SDS011;11608;50.894;5.296;2023-05-10T06:14:22;41.92;;;37.92;;
22881;SDS011;11608;50.894;5.296;2023-05-10T06:16:48;40.65;;;36.50;;
22881;SDS011;11608;50.894;5.296;2023-05-10T06:19:14;39.75;;;36.05;;
22881;SDS011;11608;50.894;5.296;2023-05-10T06:21:40;41.97;;;37.92;;
22881;SDS011;11608;50.894;5.296;2023-05-10T06:24:07;43.47;;;39.10;;
22881;SDS011;11608;50.894;5.296;2023-05-10T06:26:33;42.10;;;37.90;;
22881;SDS011;11608;50.894;5.296;2023-05-10T06:28:59;42.53;;;38.25;;
22881;SDS011;11608;50.894;5.296;2023-05-10T06:31:26;39.63;;;35.90;;
22881;SDS011;11608;50.894;5.296;2023-05-10T06:33:52;44.20;;;39.42;;
22881;SDS011;11608;50.894;5.296;2023-05-10T06:36:18;44.53;;;39.88;;
22881;SDS011;11608;50.894;5.296;2023-05-10T06:38:51;40.78;;;36.88;;
22881;SDS011;11608;50.894;5.296;2023-05-10T06:41:17;41.40;;;37.00;;
22881;SDS011;11608;50.894;5.296;2023-05-10T06:43:43;47.03;;;41.88;;
22881;SDS011;11608;50.894;5.296;2023-05-10T06:46:10;46.10;;;40.53;;
22881;SDS011;11608;50.894;5.296;2023-05-10T06:48:36;46.58;;;41.63;;
22881;SDS011;11608;50.894;5.296;2023-05-10T06:51:02;47.10;;;39.22;;
22881;SDS011;11608;50.894;5.296;2023-05-10T06:53:28;49.55;;;42.72;;
22881;SDS011;11608;50.894;5.296;2023-05-10T06:55:54;45.08;;;39.97;;
22881;SDS011;11608;50.894;5.296;2023-05-10T06:58:20;46.75;;;41.63;;
22881;SDS011;11608;50.894;5.296;2023-05-10T07:00:46;46.55;;;41.42;;
22881;SDS011;11608;50.894;5.296;2023-05-10T07:03:12;46.10;;;41.15;;
22881;SDS011;11608;50.894;5.296;2023-05-10T07:05:38;46.75;;;41.67;;
22881;SDS011;11608;50.894;5.296;2023-05-10T07:08:04;46.90;;;41.67;;
22881;SDS011;11608;50.894;5.296;2023-05-10T07:10:30;44.90;;;40.05;;
22881;SDS011;11608;50.894;5.296;2023-05-10T07:12:58;44.13;;;39.58;;
22881;SDS011;11608;50.894;5.296;2023-05-10T07:15:26;45.70;;;40.83;;
22881;SDS011;11608;50.894;5.296;2023-05-10T07:17:52;43.33;;;39.00;;
22881;SDS011;11608;50.894;5.296;2023-05-10T07:20:18;46.67;;;41.10;;
22881;SDS011;11608;50.894;5.296;2023-05-10T07:22:44;46.28;;;41.53;;
22881;SDS011;11608;50.894;5.296;2023-05-10T07:25:10;46.17;;;41.45;;
22881;SDS011;11608;50.894;5.296;2023-05-10T07:27:36;43.90;;;39.38;;
22881;SDS011;11608;50.894;5.296;2023-05-10T07:30:02;45.20;;;40.70;;
22881;SDS011;11608;50.894;5.296;2023-05-10T07:32:29;47.05;;;41.92;;
22881;SDS011;11608;50.894;5.296;2023-05-10T07:34:57;43.90;;;39.42;;
22881;SDS011;11608;50.894;5.296;2023-05-10T07:37:23;44.40;;;39.78;;
22881;SDS011;11608;50.894;5.296;2023-05-10T07:39:49;45.42;;;40.80;;
22881;SDS011;11608;50.894;5.296;2023-05-10T07:42:15;44.67;;;40.10;;
22881;SDS011;11608;50.894;5.296;2023-05-10T07:44:41;44.78;;;40.47;;
22881;SDS011;11608;50.894;5.296;2023-05-10T07:47:08;43.10;;;38.63;;
22881;SDS011;11608;50.894;5.296;2023-05-10T07:49:34;44.38;;;39.58;;
22881;SDS011;11608;50.894;5.296;2023-05-10T07:52:01;38.72;;;35.22;;
22881;SDS011;11608;50.894;5.296;2023-05-10T07:54:28;30.38;;;27.98;;
22881;SDS011;11608;50.894;5.296;2023-05-10T07:56:54;29.05;;;26.90;;
22881;SDS011;11608;50.894;5.296;2023-05-10T07:59:20;28.17;;;25.88;;
22881;SDS011;11608;50.894;5.296;2023-05-10T08:01:46;28.58;;;26.38;;
22881;SDS011;11608;50.894;5.296;2023-05-10T08:04:12;27.83;;;25.65;;
22881;SDS011;11608;50.894;5.296;2023-05-10T08:06:39;27.63;;;25.63;;
22881;SDS011;11608;50.894;5.296;2023-05-10T08:09:05;27.67;;;25.73;;
22881;SDS011;11608;50.894;5.296;2023-05-10T08:11:31;27.95;;;26.05;;
22881;SDS011;11608;50.894;5.296;2023-05-10T08:13:57;27.15;;;25.25;;
22881;SDS011;11608;50.894;5.296;2023-05-10T08:16:23;27.48;;;25.58;;
22881;SDS011;11608;50.894;5.296;2023-05-10T08:18:49;27.17;;;25.27;;
22881;SDS011;11608;50.894;5.296;2023-05-10T08:21:15;29.13;;;26.98;;
22881;SDS011;11608;50.894;5.296;2023-05-10T08:23:44;26.95;;;24.95;;
22881;SDS011;11608;50.894;5.296;2023-05-10T08:26:10;26.83;;;24.92;;
22881;SDS011;11608;50.894;5.296;2023-05-10T08:28:36;26.83;;;24.92;;
22881;SDS011;11608;50.894;5.296;2023-05-10T08:31:02;26.88;;;24.98;;
22881;SDS011;11608;50.894;5.296;2023-05-10T08:33:28;27.27;;;25.38;;
22881;SDS011;11608;50.894;5.296;2023-05-10T08:35:54;27.42;;;25.38;;
22881;SDS011;11608;50.894;5.296;2023-05-10T08:38:20;27.13;;;25.23;;
22881;SDS011;11608;50.894;5.296;2023-05-10T08:40:46;27.42;;;25.42;;
22881;SDS011;11608;50.894;5.296;2023-05-10T08:43:15;27.50;;;25.50;;
22881;SDS011;11608;50.894;5.296;2023-05-10T08:45:42;27.02;;;25.10;;
22881;SDS011;11608;50.894;5.296;2023-05-10T08:48:10;26.98;;;25.00;;
22881;SDS011;11608;50.894;5.296;2023-05-10T08:50:37;27.85;;;25.85;;
22881;SDS011;11608;50.894;5.296;2023-05-10T08:53:04;28.05;;;26.02;;
22881;SDS011;11608;50.894;5.296;2023-05-10T08:55:31;28.10;;;26.10;;
22881;SDS011;11608;50.894;5.296;2023-05-10T08:57:58;27.30;;;25.30;;
22881;SDS011;11608;50.894;5.296;2023-05-10T09:00:24;27.05;;;25.08;;
22881;SDS011;11608;50.894;5.296;2023-05-10T09:02:53;28.35;;;26.15;;
22881;SDS011;11608;50.894;5.296;2023-05-10T09:05:19;28.02;;;25.92;;
22881;SDS011;11608;50.894;5.296;2023-05-10T09:07:45;28.17;;;26.02;;
22881;SDS011;11608;50.894;5.296;2023-05-10T09:10:12;29.08;;;26.88;;
22881;SDS011;11608;50.894;5.296;2023-05-10T09:12:38;28.65;;;26.55;;
22881;SDS011;11608;50.894;5.296;2023-05-10T09:15:05;27.83;;;25.73;;
22881;SDS011;11608;50.894;5.296;2023-05-10T09:17:32;28.30;;;26.10;;
22881;SDS011;11608;50.894;5.296;2023-05-10T09:20:04;28.92;;;26.73;;
22881;SDS011;11608;50.894;5.296;2023-05-10T09:22:31;28.90;;;26.77;;
22881;SDS011;11608;50.894;5.296;2023-05-10T09:25:06;28.48;;;26.27;;
22881;SDS011;11608;50.894;5.296;2023-05-10T09:27:36;29.73;;;27.52;;
22881;SDS011;11608;50.894;5.296;2023-05-10T09:30:05;27.95;;;25.92;;
22881;SDS011;11608;50.894;5.296;2023-05-10T09:32:41;28.17;;;26.05;;
22881;SDS011;11608;50.894;5.296;2023-05-10T09:35:08;29.58;;;27.13;;
22881;SDS011;11608;50.894;5.296;2023-05-10T09:37:34;29.10;;;26.85;;
22881;SDS011;11608;50.894;5.296;2023-05-10T09:40:00;29.13;;;26.98;;
22881;SDS011;11608;50.894;5.296;2023-05-10T09:42:29;29.42;;;27.13;;
22881;SDS011;11608;50.894;5.296;2023-05-10T09:44:59;30.92;;;28.52;;
22881;SDS011;11608;50.894;5.296;2023-05-10T09:47:25;31.30;;;28.88;;
22881;SDS011;11608;50.894;5.296;2023-05-10T09:49:52;30.30;;;28.00;;
22881;SDS011;11608;50.894;5.296;2023-05-10T09:52:22;29.58;;;27.27;;
22881;SDS011;11608;50.894;5.296;2023-05-10T09:54:52;32.42;;;29.92;;
22881;SDS011;11608;50.894;5.296;2023-05-10T09:57:21;31.60;;;29.20;;
22881;SDS011;11608;50.894;5.296;2023-05-10T09:59:50;30.08;;;27.77;;
22881;SDS011;11608;50.894;5.296;2023-05-10T10:02:18;31.33;;;28.75;;
22881;SDS011;11608;50.894;5.296;2023-05-10T10:04:45;29.48;;;27.08;;
22881;SDS011;11608;50.894;5.296;2023-05-10T10:07:15;31.13;;;28.73;;
22881;SDS011;11608;50.894;5.296;2023-05-10T10:09:48;29.98;;;27.60;;
22881;SDS011;11608;50.894;5.296;2023-05-10T10:12:14;31.92;;;29.42;;
22881;SDS011;11608;50.894;5.296;2023-05-10T10:14:40;32.80;;;30.20;;
22881;SDS011;11608;50.894;5.296;2023-05-10T10:17:06;32.83;;;29.95;;
22881;SDS011;11608;50.894;5.296;2023-05-10T10:19:33;33.25;;;30.25;;
22881;SDS011;11608;50.894;5.296;2023-05-10T10:22:02;31.90;;;29.33;;
22881;SDS011;11608;50.894;5.296;2023-05-10T10:24:28;31.50;;;29.05;;
22881;SDS011;11608;50.894;5.296;2023-05-10T10:26:55;33.40;;;30.58;;
22881;SDS011;11608;50.894;5.296;2023-05-10T10:29:31;33.80;;;31.05;;
22881;SDS011;11608;50.894;5.296;2023-05-10T10:32:20;35.17;;;32.28;;
22881;SDS011;11608;50.894;5.296;2023-05-10T10:34:50;33.17;;;30.50;;
22881;SDS011;11608;50.894;5.296;2023-05-10T10:37:16;33.80;;;31.02;;
22881;SDS011;11608;50.894;5.296;2023-05-10T10:39:42;34.67;;;31.92;;
22881;SDS011;11608;50.894;5.296;2023-05-10T10:42:08;33.60;;;30.80;;
22881;SDS011;11608;50.894;5.296;2023-05-10T10:44:37;33.63;;;30.92;;
22881;SDS011;11608;50.894;5.296;2023-05-10T10:52:22;31.52;;;28.92;;
22881;SDS011;11608;50.894;5.296;2023-05-10T10:54:52;31.05;;;28.48;;
22881;SDS011;11608;50.894;5.296;2023-05-10T10:57:22;32.10;;;29.50;;
22881;SDS011;11608;50.894;5.296;2023-05-10T10:59:48;30.23;;;27.73;;
22881;SDS011;11608;50.894;5.296;2023-05-10T11:02:33;29.33;;;27.13;;
22881;SDS011;11608;50.894;5.296;2023-05-10T11:05:00;31.17;;;28.70;;
22881;SDS011;11608;50.894;5.296;2023-05-10T11:07:56;29.70;;;27.38;;
22881;SDS011;11608;50.894;5.296;2023-05-10T11:10:22;30.70;;;28.35;;
22881;SDS011;11608;50.894;5.296;2023-05-10T11:13:01;29.38;;;27.00;;
22881;SDS011;11608;50.894;5.296;2023-05-10T11:17:56;29.15;;;26.73;;
22881;SDS011;11608;50.894;5.296;2023-05-10T11:20:22;30.05;;;27.55;;
22881;SDS011;11608;50.894;5.296;2023-05-10T11:22:54;29.90;;;27.65;;
22881;SDS011;11608;50.894;5.296;2023-05-10T11:25:23;28.83;;;26.63;;
22881;SDS011;11608;50.894;5.296;2023-05-10T11:27:53;29.05;;;26.75;;
22881;SDS011;11608;50.894;5.296;2023-05-10T11:30:19;28.20;;;26.00;;
22881;SDS011;11608;50.894;5.296;2023-05-10T11:32:45;29.90;;;27.60;;
22881;SDS011;11608;50.894;5.296;2023-05-10T11:35:11;29.20;;;27.08;;
22881;SDS011;11608;50.894;5.296;2023-05-10T11:37:38;29.42;;;27.13;;
22881;SDS011;11608;50.894;5.296;2023-05-10T11:40:08;29.13;;;26.95;;
22881;SDS011;11608;50.894;5.296;2023-05-10T11:42:38;28.52;;;26.27;;
22881;SDS011;11608;50.894;5.296;2023-05-10T11:45:05;28.08;;;25.98;;
22881;SDS011;11608;50.894;5.296;2023-05-10T11:47:31;28.38;;;26.27;;
22881;SDS011;11608;50.894;5.296;2023-05-10T11:49:57;29.13;;;27.00;;
22881;SDS011;11608;50.894;5.296;2023-05-10T11:52:23;28.58;;;26.48;;
22881;SDS011;11608;50.894;5.296;2023-05-10T11:54:53;28.90;;;26.40;;
22881;SDS011;11608;50.894;5.296;2023-05-10T11:57:20;27.38;;;25.35;;
22881;SDS011;11608;50.894;5.296;2023-05-10T11:59:46;28.77;;;26.48;;
22881;SDS011;11608;50.894;5.296;2023-05-10T12:02:15;28.58;;;26.45;;
22881;SDS011;11608;50.894;5.296;2023-05-10T12:04:41;27.85;;;25.85;;
22881;SDS011;11608;50.894;5.296;2023-05-10T12:07:08;29.88;;;27.58;;
22881;SDS011;11608;50.894;5.296;2023-05-10T12:09:34;28.67;;;26.55;;
22881;SDS011;11608;50.894;5.296;2023-05-10T12:12:00;29.13;;;27.02;;
22881;SDS011;11608;50.894;5.296;2023-05-10T12:14:28;29.48;;;27.23;;
22881;SDS011;11608;50.894;5.296;2023-05-10T12:16:58;28.75;;;26.60;;
22881;SDS011;11608;50.894;5.296;2023-05-10T12:19:24;28.45;;;26.35;;
22881;SDS011;11608;50.894;5.296;2023-05-10T12:21:50;28.63;;;26.52;;
22881;SDS011;11608;50.894;5.296;2023-05-10T12:24:16;28.63;;;26.40;;
22881;SDS011;11608;50.894;5.296;2023-05-10T12:26:43;28.10;;;26.10;;
22881;SDS011;11608;50.894;5.296;2023-05-10T12:29:18;27.23;;;25.23;;
22881;SDS011;11608;50.894;5.296;2023-05-10T12:34:23;27.63;;;25.73;;
22881;SDS011;11608;50.894;5.296;2023-05-10T12:36:51;26.50;;;24.70;;
22881;SDS011;11608;50.894;5.296;2023-05-10T12:39:17;26.00;;;24.10;;
22881;SDS011;11608;50.894;5.296;2023-05-10T12:41:43;27.38;;;25.48;;
22881;SDS011;11608;50.894;5.296;2023-05-10T12:44:09;25.95;;;24.15;;
22881;SDS011;11608;50.894;5.296;2023-05-10T12:46:36;26.90;;;24.85;;
22881;SDS011;11608;50.894;5.296;2023-05-10T12:49:02;26.02;;;24.02;;
22881;SDS011;11608;50.894;5.296;2023-05-10T12:51:28;27.25;;;25.35;;
22881;SDS011;11608;50.894;5.296;2023-05-10T12:53:54;25.92;;;24.13;;
22881;SDS011;11608;50.894;5.296;2023-05-10T12:56:20;26.80;;;24.90;;
22881;SDS011;11608;50.894;5.296;2023-05-10T12:58:46;28.10;;;25.77;;
22881;SDS011;11608;50.894;5.296;2023-05-10T13:01:13;26.60;;;24.70;;
22881;SDS011;11608;50.894;5.296;2023-05-10T13:03:39;25.92;;;24.13;;
22881;SDS011;11608;50.894;5.296;2023-05-10T13:06:05;25.65;;;23.85;;
22881;SDS011;11608;50.894;5.296;2023-05-10T13:08:31;25.70;;;23.90;;
22881;SDS011;11608;50.894;5.296;2023-05-10T13:10:59;25.00;;;23.20;;
22881;SDS011;11608;50.894;5.296;2023-05-10T13:13:25;26.85;;;24.95;;
22881;SDS011;11608;50.894;5.296;2023-05-10T13:15:51;26.33;;;24.45;;
22881;SDS011;11608;50.894;5.296;2023-05-10T13:18:19;26.52;;;24.63;;
22881;SDS011;11608;50.894;5.296;2023-05-10T13:20:45;25.95;;;24.08;;
22881;SDS011;11608;50.894;5.296;2023-05-10T13:23:11;27.08;;;25.17;;
22881;SDS011;11608;50.894;5.296;2023-05-10T13:25:41;26.65;;;24.75;;
22881;SDS011;11608;50.894;5.296;2023-05-10T13:28:07;25.15;;;23.35;;
22881;SDS011;11608;50.894;5.296;2023-05-10T13:30:33;25.40;;;23.60;;
22881;SDS011;11608;50.894;5.296;2023-05-10T13:32:59;24.83;;;23.13;;
22881;SDS011;11608;50.894;5.296;2023-05-10T13:35:25;24.73;;;23.02;;
22881;SDS011;11608;50.894;5.296;2023-05-10T13:37:51;24.90;;;23.20;;
22881;SDS011;11608;50.894;5.296;2023-05-10T13:40:18;24.50;;;22.80;;
22881;SDS011;11608;50.894;5.296;2023-05-10T13:42:44;24.92;;;23.23;;
22881;SDS011;11608;50.894;5.296;2023-05-10T13:45:10;25.83;;;24.02;;
22881;SDS011;11608;50.894;5.296;2023-05-10T13:47:38;25.30;;;23.55;;
22881;SDS011;11608;50.894;5.296;2023-05-10T13:50:04;25.45;;;23.65;;
22881;SDS011;11608;50.894;5.296;2023-05-10T13:52:30;25.23;;;23.52;;
22881;SDS011;11608;50.894;5.296;2023-05-10T13:54:56;27.42;;;25.42;;
22881;SDS011;11608;50.894;5.296;2023-05-10T13:57:22;27.20;;;25.23;;
22881;SDS011;11608;50.894;5.296;2023-05-10T13:59:49;26.83;;;24.85;;
22881;SDS011;11608;50.894;5.296;2023-05-10T14:02:15;26.70;;;24.90;;
22881;SDS011;11608;50.894;5.296;2023-05-10T14:04:41;24.30;;;22.70;;
22881;SDS011;11608;50.894;5.296;2023-05-10T14:07:07;25.77;;;23.98;;
22881;SDS011;11608;50.894;5.296;2023-05-10T14:09:33;25.38;;;23.58;;
22881;SDS011;11608;50.894;5.296;2023-05-10T14:11:59;24.83;;;23.23;;
22881;SDS011;11608;50.894;5.296;2023-05-10T14:14:25;26.27;;;24.38;;
22881;SDS011;11608;50.894;5.296;2023-05-10T14:16:51;25.48;;;23.65;;
22881;SDS011;11608;50.894;5.296;2023-05-10T14:19:17;26.42;;;24.63;;
22881;SDS011;11608;50.894;5.296;2023-05-10T14:21:44;24.85;;;23.00;;
22881;SDS011;11608;50.894;5.296;2023-05-10T14:24:10;25.35;;;23.55;;
22881;SDS011;11608;50.894;5.296;2023-05-10T14:26:36;25.77;;;23.88;;
22881;SDS011;11608;50.894;5.296;2023-05-10T14:29:02;23.50;;;21.73;;
22881;SDS011;11608;50.894;5.296;2023-05-10T14:31:28;23.95;;;22.25;;
22881;SDS011;11608;50.894;5.296;2023-05-10T14:33:55;24.58;;;22.77;;
22881;SDS011;11608;50.894;5.296;2023-05-10T14:36:22;24.65;;;22.85;;
22881;SDS011;11608;50.894;5.296;2023-05-10T14:38:48;24.08;;;22.17;;
22881;SDS011;11608;50.894;5.296;2023-05-10T14:41:15;23.83;;;22.02;;
22881;SDS011;11608;50.894;5.296;2023-05-10T14:43:42;23.95;;;22.05;;
22881;SDS011;11608;50.894;5.296;2023-05-10T14:46:08;23.45;;;21.75;;
22881;SDS011;11608;50.894;5.296;2023-05-10T14:48:34;23.70;;;22.00;;
22881;SDS011;11608;50.894;5.296;2023-05-10T14:51:00;23.60;;;21.80;;